Time;durP1;ratioP1;P1;durP2;ratioP2;P2;SDS_P1;SDS_P2;PMS_P1;PMS_P2;Temp;Humidity;BMP_temperature;BMP_pressure;BME280_temperature;BME280_humidity;BME280_pressure;Samples;Min_cycle;Max_cycle;Signal;HPM_P1;HPM_P2
2022/05/29 00:01:21;;;;;;;;;;;10.60;99.90;;;;;;5001255;28;19922;-76
2022/05/29 00:03:46;;;;;;;;;;;10.60;99.90;;;;;;5004890;28;19921;-75
2022/05/29 00:06:12;;;;;;;;;;;10.60;99.90;;;;;;4997052;28;19964;-76
2022/05/29 00:08:38;;;;;;;;;;;10.60;99.90;;;;;;5002651;28;20359;-76
2022/05/29 00:11:05;;;;;;;;;;;10.60;99.90;;;;;;5020828;28;19928;-76
2022/05/29 00:13:30;;;;;;;;;;;10.60;99.90;;;;;;5006102;28;20008;-76
2022/05/29 00:15:56;;;;;;;;;;;10.50;99.90;;;;;;4997989;28;20373;-76
2022/05/29 00:18:21;;;;;;;;;;;10.40;99.90;;;;;;5015328;28;19975;-76
2022/05/29 00:20:51;;;;;;;;;;;10.40;99.90;;;;;;5012799;28;20305;-76
2022/05/29 00:23:17;;;;;;;;;;;10.40;99.90;;;;;;5006833;28;19929;-76
2022/05/29 00:25:43;;;;;;;;;;;10.40;99.90;;;;;;5006869;28;19921;-76
2022/05/29 00:28:08;;;;;;;;;;;10.40;99.90;;;;;;5022845;28;19993;-76
2022/05/29 00:30:34;;;;;;;;;;;10.40;99.90;;;;;;5004082;28;19958;-76
2022/05/29 00:32:59;;;;;;;;;;;10.30;99.90;;;;;;5016149;28;19929;-76
2022/05/29 00:35:25;;;;;;;;;;;10.30;99.90;;;;;;5008722;28;20016;-76
2022/05/29 00:37:50;;;;;;;;;;;10.20;99.90;;;;;;4996845;28;19922;-76
2022/05/29 00:40:28;;;;;;;;;;;10.20;99.90;;;;;;5006535;28;19921;-77
2022/05/29 00:42:54;;;;;;;;;;;10.10;99.90;;;;;;5021962;28;19927;-74
2022/05/29 00:45:20;;;;;;;;;;;10.20;99.90;;;;;;5007527;28;20012;-76
2022/05/29 00:47:46;;;;;;;;;;;10.20;99.90;;;;;;5000049;28;19929;-76
2022/05/29 00:50:11;;;;;;;;;;;10.10;99.90;;;;;;5006019;28;20336;-75
2022/05/29 00:52:37;;;;;;;;;;;10.10;99.90;;;;;;5011028;28;19922;-76
2022/05/29 00:55:13;;;;;;;;;;;10.10;99.90;;;;;;5026696;28;19969;-76
2022/05/29 00:57:47;;;;;;;;;;;10.10;99.90;;;;;;5011504;28;20008;-75
2022/05/29 01:00:14;;;;;;;;;;;10.10;99.90;;;;;;5017475;28;19968;-78
2022/05/29 01:02:40;;;;;;;;;;;10.00;99.90;;;;;;5008769;28;19930;-76
2022/05/29 01:05:06;;;;;;;;;;;10.00;99.90;;;;;;5011054;28;19921;-75
2022/05/29 01:07:32;;;;;;;;;;;10.00;99.90;;;;;;5020975;28;19921;-75
2022/05/29 01:09:57;;;;;;;;;;;10.00;99.90;;;;;;5005039;28;19974;-73
2022/05/29 01:12:32;;;;;;;;;;;10.00;99.90;;;;;;5013023;28;19921;-74
2022/05/29 01:15:16;;;;;;;;;;;10.00;99.90;;;;;;4997767;28;19968;-74
2022/05/29 01:17:55;;;;;;;;;;;10.00;99.90;;;;;;5004683;28;20393;-73
2022/05/29 01:20:20;;;;;;;;;;;10.10;99.90;;;;;;5023590;28;19922;-75
2022/05/29 01:22:46;;;;;;;;;;;10.00;99.90;;;;;;5006495;28;20313;-71
2022/05/29 01:25:30;;;;;;;;;;;10.00;99.90;;;;;;5013032;28;19921;-79
2022/05/29 01:28:09;;;;;;;;;;;10.00;99.90;;;;;;5014135;28;19929;-71
2022/05/29 01:30:36;;;;;;;;;;;10.00;99.90;;;;;;5016398;28;19927;-72
2022/05/29 01:33:12;;;;;;;;;;;10.00;99.90;;;;;;5015045;28;19921;-76
2022/05/29 01:35:43;;;;;;;;;;;10.00;99.90;;;;;;4996102;28;20089;-76
2022/05/29 01:38:08;;;;;;;;;;;10.00;99.90;;;;;;5024022;28;19921;-76
2022/05/29 01:40:48;;;;;;;;;;;10.00;99.90;;;;;;4998362;28;19926;-75
2022/05/29 01:43:31;;;;;;;;;;;10.00;99.90;;;;;;5010757;28;19922;-77
2022/05/29 01:45:57;;;;;;;;;;;10.00;99.90;;;;;;5011168;28;19925;-75
2022/05/29 01:48:22;;;;;;;;;;;10.00;99.90;;;;;;5005905;28;19922;-76
2022/05/29 01:50:50;;;;;;;;;;;10.00;99.90;;;;;;5008097;28;19932;-75
2022/05/29 01:53:16;;;;;;;;;;;10.00;99.90;;;;;;5010549;28;19921;-76
2022/05/29 01:55:53;;;;;;;;;;;10.00;99.90;;;;;;4995849;28;20493;-77
2022/05/29 01:58:29;;;;;;;;;;;10.00;99.90;;;;;;5015616;28;20416;-77
2022/05/29 02:00:55;;;;;;;;;;;10.10;99.90;;;;;;5021884;28;19943;-77
2022/05/29 02:03:22;;;;;;;;;;;10.10;99.90;;;;;;5005268;28;20178;-77
2022/05/29 02:05:51;;;;;;;;;;;10.10;99.90;;;;;;5027550;28;19928;-76
2022/05/29 02:08:27;;;;;;;;;;;10.10;99.90;;;;;;5012153;28;20320;-77
2022/05/29 02:10:54;;;;;;;;;;;10.10;99.90;;;;;;5019989;28;20281;-75
2022/05/29 02:13:21;;;;;;;;;;;10.10;99.90;;;;;;5029291;28;19925;-79
2022/05/29 02:15:50;;;;;;;;;;;10.10;99.90;;;;;;5012875;28;19925;-76
2022/05/29 02:18:28;;;;;;;;;;;10.20;99.90;;;;;;4994626;28;19921;-76
2022/05/29 02:20:54;;;;;;;;;;;10.10;99.90;;;;;;5018879;28;20444;-76
2022/05/29 02:23:22;;;;;;;;;;;10.20;99.90;;;;;;5014232;28;19948;-76
2022/05/29 02:25:48;;;;;;;;;;;10.10;99.90;;;;;;5009927;28;19961;-76
2022/05/29 02:28:19;;;;;;;;;;;10.10;99.90;;;;;;4997302;28;19940;-76
2022/05/29 02:30:49;;;;;;;;;;;10.10;99.90;;;;;;5009407;28;20293;-76
2022/05/29 02:33:17;;;;;;;;;;;10.10;99.90;;;;;;5014926;28;19922;-76
2022/05/29 02:35:45;;;;;;;;;;;10.10;99.90;;;;;;5009492;28;19922;-75
2022/05/29 02:38:31;;;;;;;;;;;10.10;99.90;;;;;;5000032;28;19921;-76
2022/05/29 02:41:06;;;;;;;;;;;10.20;99.90;;;;;;4995598;28;19921;-76
2022/05/29 02:43:37;;;;;;;;;;;10.20;99.90;;;;;;5012372;28;19921;-77
2022/05/29 02:46:15;;;;;;;;;;;10.10;99.90;;;;;;5006891;28;20002;-77
2022/05/29 02:48:57;;;;;;;;;;;10.20;99.90;;;;;;4994733;28;19926;-76
2022/05/29 02:51:41;;;;;;;;;;;10.20;99.90;;;;;;4996102;28;20016;-76
2022/05/29 02:54:10;;;;;;;;;;;10.20;99.90;;;;;;4997910;28;19921;-76
2022/05/29 02:56:35;;;;;;;;;;;10.10;99.90;;;;;;5010583;28;19929;-76
2022/05/29 02:59:01;;;;;;;;;;;10.10;99.90;;;;;;5011215;28;19922;-77
2022/05/29 03:01:33;;;;;;;;;;;10.10;99.90;;;;;;5022779;28;19943;-73
2022/05/29 03:04:18;;;;;;;;;;;10.10;99.90;;;;;;5057959;28;19921;-71
2022/05/29 03:06:53;;;;;;;;;;;10.10;99.90;;;;;;5052961;28;19984;-72
2022/05/29 03:09:28;;;;;;;;;;;10.10;99.90;;;;;;5029618;28;19921;-74
2022/05/29 03:11:54;;;;;;;;;;;10.10;99.90;;;;;;4997583;28;19937;-76
2022/05/29 03:14:46;;;;;;;;;;;10.10;99.90;;;;;;5015413;28;19930;-76
2022/05/29 03:17:20;;;;;;;;;;;10.10;99.90;;;;;;5024003;28;19922;-76
2022/05/29 03:19:55;;;;;;;;;;;10.10;99.90;;;;;;5000293;28;20313;-76
2022/05/29 03:22:22;;;;;;;;;;;10.10;99.90;;;;;;4994013;28;20043;-76
2022/05/29 03:24:48;;;;;;;;;;;10.00;99.90;;;;;;5013020;28;20354;-76
2022/05/29 03:27:16;;;;;;;;;;;10.00;99.90;;;;;;5013515;28;19922;-77
2022/05/29 03:29:41;;;;;;;;;;;10.00;99.90;;;;;;5016199;28;19922;-76
2022/05/29 03:32:07;;;;;;;;;;;9.90;99.90;;;;;;5003077;28;20302;-76
2022/05/29 03:34:32;;;;;;;;;;;9.90;99.90;;;;;;5001207;28;19922;-77
2022/05/29 03:36:58;;;;;;;;;;;9.90;99.90;;;;;;4994861;28;20000;-77
2022/05/29 03:39:23;;;;;;;;;;;9.90;99.90;;;;;;4998949;28;19941;-76
2022/05/29 03:41:52;;;;;;;;;;;9.90;99.90;;;;;;4997653;28;20293;-76
2022/05/29 03:44:18;;;;;;;;;;;9.90;99.90;;;;;;4994449;28;19966;-77
2022/05/29 03:46:44;;;;;;;;;;;9.90;99.90;;;;;;5006204;28;19968;-76
2022/05/29 03:49:10;;;;;;;;;;;9.90;99.90;;;;;;5007643;28;20369;-76
2022/05/29 03:51:36;;;;;;;;;;;9.90;99.90;;;;;;5005481;28;19948;-76
2022/05/29 03:54:02;;;;;;;;;;;9.80;99.90;;;;;;5013333;28;19922;-76
2022/05/29 03:56:27;;;;;;;;;;;10.00;99.90;;;;;;4996362;28;19944;-75
2022/05/29 03:58:53;;;;;;;;;;;10.00;99.90;;;;;;5009819;28;20385;-74
2022/05/29 04:01:18;;;;;;;;;;;10.00;99.90;;;;;;5006460;28;20094;-75
2022/05/29 04:03:44;;;;;;;;;;;10.00;99.90;;;;;;5010274;28;19922;-75
2022/05/29 04:06:09;;;;;;;;;;;10.00;99.90;;;;;;4993363;28;19926;-76
2022/05/29 04:14:05;;;;;;;;;;;10.10;99.90;;;;;;4993383;28;20401;-76
2022/05/29 04:16:31;;;;;;;;;;;10.10;99.90;;;;;;5004474;28;19932;-75
2022/05/29 04:18:56;;;;;;;;;;;10.10;99.90;;;;;;4996032;28;19925;-76
2022/05/29 04:21:22;;;;;;;;;;;10.10;99.90;;;;;;5000974;28;19921;-75
2022/05/29 04:23:47;;;;;;;;;;;10.10;99.90;;;;;;4997819;28;19922;-75
2022/05/29 04:26:14;;;;;;;;;;;10.10;99.90;;;;;;5008762;28;20437;-76
2022/05/29 04:28:39;;;;;;;;;;;10.10;99.90;;;;;;4994720;28;20008;-75
2022/05/29 04:31:05;;;;;;;;;;;10.10;99.90;;;;;;5003805;28;20047;-75
2022/05/29 04:33:31;;;;;;;;;;;10.10;99.90;;;;;;5003089;28;19929;-76
2022/05/29 04:35:56;;;;;;;;;;;10.00;99.90;;;;;;4999154;28;20345;-76
2022/05/29 04:38:27;;;;;;;;;;;10.10;99.90;;;;;;5008745;28;19929;-71
2022/05/29 04:40:53;;;;;;;;;;;10.00;99.90;;;;;;5029739;28;19970;-79
2022/05/29 04:43:19;;;;;;;;;;;10.10;99.90;;;;;;5052169;28;19921;-75
2022/05/29 04:45:44;;;;;;;;;;;10.00;99.90;;;;;;5019031;28;19927;-77
2022/05/29 04:48:10;;;;;;;;;;;10.00;99.90;;;;;;5028398;28;20289;-78
2022/05/29 04:50:36;;;;;;;;;;;10.00;99.90;;;;;;5002455;28;20298;-77
2022/05/29 04:53:02;;;;;;;;;;;10.00;99.90;;;;;;5012671;28;19927;-78
2022/05/29 04:55:28;;;;;;;;;;;10.10;99.90;;;;;;5012578;28;19921;-77
2022/05/29 04:57:53;;;;;;;;;;;10.00;99.90;;;;;;5014284;28;19921;-78
2022/05/29 05:00:19;;;;;;;;;;;10.10;99.90;;;;;;5003518;28;19980;-78
2022/05/29 05:02:44;;;;;;;;;;;10.10;99.90;;;;;;5008239;28;19921;-78
2022/05/29 05:05:10;;;;;;;;;;;10.10;99.90;;;;;;5018543;28;19981;-77
2022/05/29 05:07:36;;;;;;;;;;;10.10;99.90;;;;;;5011477;28;19922;-78
2022/05/29 05:10:02;;;;;;;;;;;10.10;99.90;;;;;;4998529;28;19921;-78
2022/05/29 05:12:28;;;;;;;;;;;10.10;99.90;;;;;;5027306;28;19928;-76
2022/05/29 05:14:53;;;;;;;;;;;10.10;99.90;;;;;;5007169;28;20362;-77
2022/05/29 05:17:19;;;;;;;;;;;10.20;99.90;;;;;;5024784;28;19948;-77
2022/05/29 05:19:44;;;;;;;;;;;10.20;99.90;;;;;;5003570;28;20429;-77
2022/05/29 05:22:10;;;;;;;;;;;10.20;99.90;;;;;;4995839;28;20370;-78
2022/05/29 05:24:37;;;;;;;;;;;10.30;99.90;;;;;;5012217;28;20067;-78
2022/05/29 05:27:03;;;;;;;;;;;10.30;99.90;;;;;;5011773;28;20000;-78
2022/05/29 05:29:28;;;;;;;;;;;10.40;99.90;;;;;;5013242;28;19929;-78
2022/05/29 05:31:54;;;;;;;;;;;10.60;99.90;;;;;;5013538;28;19922;-78
2022/05/29 05:34:20;;;;;;;;;;;10.60;99.90;;;;;;5014827;28;19925;-77
2022/05/29 05:36:46;;;;;;;;;;;10.70;99.90;;;;;;5003557;28;19925;-77
2022/05/29 05:39:11;;;;;;;;;;;10.80;99.90;;;;;;5003483;28;19929;-77
2022/05/29 05:41:37;;;;;;;;;;;10.80;99.90;;;;;;5001152;28;19921;-78
2022/05/29 05:44:02;;;;;;;;;;;10.80;99.90;;;;;;5012717;28;19975;-78
2022/05/29 05:46:28;;;;;;;;;;;10.80;99.90;;;;;;5011219;28;19921;-77
2022/05/29 05:48:54;;;;;;;;;;;10.90;99.90;;;;;;4994806;28;19922;-77
2022/05/29 05:51:19;;;;;;;;;;;10.80;99.90;;;;;;5003538;28;19926;-77
2022/05/29 05:53:45;;;;;;;;;;;10.80;99.90;;;;;;5005228;28;19927;-77
2022/05/29 05:56:12;;;;;;;;;;;10.80;99.90;;;;;;5013296;28;20020;-77
2022/05/29 05:58:38;;;;;;;;;;;10.90;99.90;;;;;;5011320;28;20369;-77
2022/05/29 06:01:04;;;;;;;;;;;10.90;99.90;;;;;;5003496;28;20292;-77
2022/05/29 06:03:30;;;;;;;;;;;10.80;99.90;;;;;;4995076;28;19926;-78
2022/05/29 06:05:55;;;;;;;;;;;10.80;99.90;;;;;;4994804;28;19991;-77
2022/05/29 06:08:21;;;;;;;;;;;10.80;99.90;;;;;;5016092;28;20036;-76
2022/05/29 06:10:46;;;;;;;;;;;10.80;99.90;;;;;;5014743;28;21377;-76
2022/05/29 06:13:12;;;;;;;;;;;10.70;99.90;;;;;;5018174;28;19921;-76
2022/05/29 06:15:38;;;;;;;;;;;10.60;99.90;;;;;;5022935;28;19913;-76
2022/05/29 06:18:04;;;;;;;;;;;10.50;99.90;;;;;;5020802;28;19922;-78
2022/05/29 06:20:29;;;;;;;;;;;10.50;99.90;;;;;;5039488;28;19925;-71
2022/05/29 06:22:55;;;;;;;;;;;10.60;99.90;;;;;;5019588;28;19922;-71
2022/05/29 06:25:21;;;;;;;;;;;10.50;99.90;;;;;;5015808;28;19925;-74
2022/05/29 06:27:47;;;;;;;;;;;10.50;99.90;;;;;;4995397;28;19928;-76
2022/05/29 06:30:13;;;;;;;;;;;10.60;99.90;;;;;;4995862;28;19921;-77
2022/05/29 06:32:39;;;;;;;;;;;10.60;99.90;;;;;;5004173;28;19987;-75
2022/05/29 06:35:05;;;;;;;;;;;10.70;99.90;;;;;;5008365;28;20373;-79
2022/05/29 06:37:31;;;;;;;;;;;10.70;99.90;;;;;;5007963;28;19925;-74
2022/05/29 06:39:57;;;;;;;;;;;10.70;99.90;;;;;;4997931;28;19952;-75
2022/05/29 06:42:22;;;;;;;;;;;10.80;99.90;;;;;;4999968;28;19925;-75
2022/05/29 06:44:48;;;;;;;;;;;10.70;99.90;;;;;;5012612;28;19944;-75
2022/05/29 06:47:15;;;;;;;;;;;10.70;99.90;;;;;;5007552;28;20274;-75
2022/05/29 06:49:41;;;;;;;;;;;10.70;99.90;;;;;;4995442;28;19978;-79
2022/05/29 06:52:07;;;;;;;;;;;10.70;99.90;;;;;;5005330;28;19922;-78
2022/05/29 06:54:33;;;;;;;;;;;10.70;99.90;;;;;;5006217;28;20128;-76
2022/05/29 06:56:58;;;;;;;;;;;10.80;99.90;;;;;;5020899;28;19921;-75
2022/05/29 06:59:24;;;;;;;;;;;10.80;99.90;;;;;;5033377;28;19921;-75
2022/05/29 07:07:18;;;;;;;;;;;10.90;99.90;;;;;;5032360;28;19921;-74
2022/05/29 07:09:43;;;;;;;;;;;11.00;99.90;;;;;;5015224;28;20357;-75
2022/05/29 07:12:09;;;;;;;;;;;11.10;99.90;;;;;;5013672;28;19967;-75
2022/05/29 07:14:35;;;;;;;;;;;11.10;99.90;;;;;;5013539;28;19921;-76
2022/05/29 07:17:01;;;;;;;;;;;11.10;99.90;;;;;;5011661;28;19922;-75
2022/05/29 07:19:28;;;;;;;;;;;11.20;99.90;;;;;;5001422;28;20396;-75
2022/05/29 07:21:55;;;;;;;;;;;11.20;99.90;;;;;;5013604;28;19964;-75
2022/05/29 07:24:20;;;;;;;;;;;11.30;99.90;;;;;;5017119;28;19926;-75
2022/05/29 07:26:46;;;;;;;;;;;11.30;99.90;;;;;;4993898;28;19922;-75
2022/05/29 07:29:12;;;;;;;;;;;11.30;99.90;;;;;;5008869;28;19922;-74
2022/05/29 07:31:37;;;;;;;;;;;11.40;99.90;;;;;;4993960;28;19921;-75
2022/05/29 07:34:03;;;;;;;;;;;11.40;99.90;;;;;;4993642;28;19928;-76
2022/05/29 07:36:28;;;;;;;;;;;11.40;99.90;;;;;;5004134;28;20000;-79
2022/05/29 07:38:54;;;;;;;;;;;11.50;99.90;;;;;;5001669;28;20358;-76
2022/05/29 07:44:03;;;;;;;;;;;11.50;99.90;;;;;;5013122;28;19968;-79
2022/05/29 07:46:29;;;;;;;;;;;11.40;99.90;;;;;;5031222;28;19921;-76
2022/05/29 07:48:55;;;;;;;;;;;11.40;99.90;;;;;;5014525;28;19930;-76
2022/05/29 07:51:20;;;;;;;;;;;11.40;99.90;;;;;;5018213;28;19922;-76
2022/05/29 07:53:46;;;;;;;;;;;11.40;99.90;;;;;;5001358;28;20349;-76
2022/05/29 07:56:11;;;;;;;;;;;11.30;99.90;;;;;;4993861;28;19922;-76
2022/05/29 07:58:39;;;;;;;;;;;11.20;99.90;;;;;;5001859;28;20410;-75
2022/05/29 08:01:05;;;;;;;;;;;11.20;99.90;;;;;;5008869;28;20384;-75
2022/05/29 08:03:30;;;;;;;;;;;11.20;99.90;;;;;;5010749;28;19965;-76
2022/05/29 08:05:56;;;;;;;;;;;11.20;99.90;;;;;;5012142;28;19921;-76
2022/05/29 08:08:22;;;;;;;;;;;11.20;99.90;;;;;;5027107;28;19921;-75
2022/05/29 08:10:47;;;;;;;;;;;11.20;99.90;;;;;;4996441;28;19921;-74
2022/05/29 08:13:14;;;;;;;;;;;11.30;99.90;;;;;;4999134;28;19932;-73
2022/05/29 08:15:39;;;;;;;;;;;11.30;99.90;;;;;;5013428;28;20264;-73
2022/05/29 08:18:05;;;;;;;;;;;11.40;99.90;;;;;;5012429;28;19929;-74
2022/05/29 08:20:31;;;;;;;;;;;11.40;99.90;;;;;;5008771;28;19922;-75
2022/05/29 08:22:56;;;;;;;;;;;11.50;99.90;;;;;;5024047;28;20389;-75
2022/05/29 08:30:54;;;;;;;;;;;11.50;99.90;;;;;;5014698;28;19997;-75
2022/05/29 08:33:29;;;;;;;;;;;11.50;99.90;;;;;;5015587;28;20016;-75
2022/05/29 08:35:56;;;;;;;;;;;11.50;99.90;;;;;;5016593;28;19921;-74
2022/05/29 08:38:22;;;;;;;;;;;11.40;99.90;;;;;;5015437;28;19921;-75
2022/05/29 08:40:53;;;;;;;;;;;11.50;99.90;;;;;;5016904;28;19930;-75
2022/05/29 08:43:21;;;;;;;;;;;11.50;99.90;;;;;;5015819;28;19925;-76
2022/05/29 08:45:47;;;;;;;;;;;11.60;99.90;;;;;;5016425;28;19975;-77
2022/05/29 08:48:12;;;;;;;;;;;11.70;99.90;;;;;;5015576;28;19921;-76
2022/05/29 08:50:39;;;;;;;;;;;11.80;99.90;;;;;;5016037;28;19921;-76
2022/05/29 08:53:06;;;;;;;;;;;11.90;99.90;;;;;;5016474;28;19921;-76
2022/05/29 08:55:31;;;;;;;;;;;12.00;99.90;;;;;;5014863;28;19925;-76
2022/05/29 08:58:00;;;;;;;;;;;12.00;99.90;;;;;;5031696;28;19921;-76
2022/05/29 09:00:25;;;;;;;;;;;12.00;99.90;;;;;;5016318;28;19925;-76
2022/05/29 09:03:10;;;;;;;;;;;12.00;99.90;;;;;;5016428;28;19929;-76
2022/05/29 09:05:37;;;;;;;;;;;11.90;99.90;;;;;;5015753;28;19973;-77
2022/05/29 09:08:08;;;;;;;;;;;11.90;99.90;;;;;;5015377;28;19928;-76
2022/05/29 09:10:38;;;;;;;;;;;12.00;99.90;;;;;;5014472;28;19921;-77
2022/05/29 09:13:04;;;;;;;;;;;12.00;99.90;;;;;;5014634;28;19921;-77
2022/05/29 09:15:35;;;;;;;;;;;12.00;99.90;;;;;;5015671;28;20359;-77
2022/05/29 09:18:02;;;;;;;;;;;12.10;99.90;;;;;;5015685;28;20011;-77
2022/05/29 09:20:32;;;;;;;;;;;12.20;99.90;;;;;;4998753;28;19921;-76
2022/05/29 09:22:58;;;;;;;;;;;12.30;99.90;;;;;;5015492;28;19922;-76
2022/05/29 09:25:34;;;;;;;;;;;12.30;99.90;;;;;;5015736;28;19922;-76
2022/05/29 09:28:04;;;;;;;;;;;12.30;99.70;;;;;;5015017;28;20016;-76
2022/05/29 09:30:29;;;;;;;;;;;12.20;99.90;;;;;;5015818;28;20340;-76
2022/05/29 09:32:59;;;;;;;;;;;12.20;99.90;;;;;;5015164;28;19930;-77
2022/05/29 09:35:32;;;;;;;;;;;12.30;99.90;;;;;;5014061;28;20456;-76
2022/05/29 09:38:01;;;;;;;;;;;12.40;99.90;;;;;;4998060;28;19971;-77
2022/05/29 09:40:31;;;;;;;;;;;12.50;99.90;;;;;;5015820;28;19922;-77
2022/05/29 09:42:57;;;;;;;;;;;12.60;99.40;;;;;;5014897;28;19921;-78
2022/05/29 09:45:26;;;;;;;;;;;12.50;97.70;;;;;;4998543;28;20380;-79
2022/05/29 09:50:55;;;;;;;;;;;12.50;97.80;;;;;;5015527;28;19922;-79
2022/05/29 09:53:22;;;;;;;;;;;12.50;98.50;;;;;;5016026;28;19922;-78
2022/05/29 09:55:55;;;;;;;;;;;12.40;98.00;;;;;;5028047;28;19921;-80
2022/05/29 09:58:28;;;;;;;;;;;12.40;97.60;;;;;;5013807;28;20016;-80
2022/05/29 10:01:02;;;;;;;;;;;12.30;97.90;;;;;;5023729;28;19921;-78
2022/05/29 10:03:35;;;;;;;;;;;12.20;98.40;;;;;;5039242;28;19905;-80
2022/05/29 10:06:09;;;;;;;;;;;12.20;98.60;;;;;;5036396;28;19917;-73
2022/05/29 10:08:35;;;;;;;;;;;12.20;98.30;;;;;;5059871;28;19960;-77
2022/05/29 10:11:19;;;;;;;;;;;12.30;97.60;;;;;;5016875;28;19921;-76
2022/05/29 10:13:45;;;;;;;;;;;12.40;97.40;;;;;;5006416;28;19921;-76
2022/05/29 10:16:11;;;;;;;;;;;12.50;98.00;;;;;;5011520;28;19922;-75
2022/05/29 10:18:40;;;;;;;;;;;12.60;97.50;;;;;;4999506;28;19936;-77
2022/05/29 10:21:09;;;;;;;;;;;12.70;98.10;;;;;;5030114;28;20381;-76
2022/05/29 10:23:36;;;;;;;;;;;13.00;98.60;;;;;;5029693;28;19929;-76
2022/05/29 10:26:07;;;;;;;;;;;13.20;97.60;;;;;;5014579;28;20284;-77
2022/05/29 10:28:34;;;;;;;;;;;13.30;96.70;;;;;;5029690;28;20419;-77
2022/05/29 10:31:00;;;;;;;;;;;13.20;96.60;;;;;;5007187;28;20125;-77
2022/05/29 10:33:30;;;;;;;;;;;13.00;96.80;;;;;;5009920;28;20362;-77
2022/05/29 10:35:58;;;;;;;;;;;12.80;97.40;;;;;;4994434;28;19921;-76
2022/05/29 10:38:26;;;;;;;;;;;12.80;98.90;;;;;;5009918;28;19921;-76
2022/05/29 10:40:52;;;;;;;;;;;12.70;99.10;;;;;;4994436;28;19921;-76
2022/05/29 10:43:35;;;;;;;;;;;12.60;98.40;;;;;;4994719;28;19922;-76
2022/05/29 10:46:06;;;;;;;;;;;12.60;98.90;;;;;;5001214;28;20369;-76
2022/05/29 10:48:32;;;;;;;;;;;12.50;98.90;;;;;;5002128;28;19928;-83
2022/05/29 10:51:16;;;;;;;;;;;12.60;98.60;;;;;;5013343;28;19921;-87
2022/05/29 10:54:04;;;;;;;;;;;12.70;98.20;;;;;;5010075;28;19921;-82
2022/05/29 10:56:36;;;;;;;;;;;12.70;97.70;;;;;;5010557;28;20390;-76
2022/05/29 10:59:15;;;;;;;;;;;12.80;96.80;;;;;;5010493;28;19922;-77
2022/05/29 11:04:45;;;;;;;;;;;13.10;96.80;;;;;;5007300;28;19926;-77
2022/05/29 11:07:11;;;;;;;;;;;13.30;96.90;;;;;;5000113;28;19929;-83
2022/05/29 11:10:03;;;;;;;;;;;13.50;95.20;;;;;;5001029;28;19934;-77
2022/05/29 11:12:28;;;;;;;;;;;13.50;95.60;;;;;;5003301;28;19922;-76
2022/05/29 11:14:56;;;;;;;;;;;13.60;96.00;;;;;;5013247;28;19921;-75
2022/05/29 11:17:28;;;;;;;;;;;13.60;95.90;;;;;;5013426;28;19953;-74
2022/05/29 11:20:05;;;;;;;;;;;13.60;93.90;;;;;;5012961;28;19921;-77
2022/05/29 11:22:31;;;;;;;;;;;13.30;94.60;;;;;;5028426;28;19922;-79
2022/05/29 11:25:06;;;;;;;;;;;13.10;94.90;;;;;;5011505;28;19928;-77
2022/05/29 11:27:43;;;;;;;;;;;12.90;95.90;;;;;;5013289;28;19921;-76
2022/05/29 11:30:15;;;;;;;;;;;12.70;96.70;;;;;;5026005;28;19922;-77
2022/05/29 11:32:45;;;;;;;;;;;12.70;97.10;;;;;;5013476;28;20358;-75
2022/05/29 11:35:17;;;;;;;;;;;12.60;97.60;;;;;;5005703;28;20582;-75
2022/05/29 11:37:50;;;;;;;;;;;12.70;96.70;;;;;;5013138;28;19921;-75
2022/05/29 11:40:17;;;;;;;;;;;12.80;96.10;;;;;;4992423;28;19930;-75
2022/05/29 11:42:42;;;;;;;;;;;12.90;96.60;;;;;;4993017;28;19929;-76
2022/05/29 11:45:09;;;;;;;;;;;13.10;96.60;;;;;;5013302;28;19921;-77
2022/05/29 11:53:34;;;;;;;;;;;13.60;96.40;;;;;;5017121;28;20289;-79
2022/05/29 11:56:01;;;;;;;;;;;13.80;94.70;;;;;;5016762;28;19921;-77
2022/05/29 11:58:28;;;;;;;;;;;13.90;94.90;;;;;;5034972;28;19968;-73
2022/05/29 12:00:57;;;;;;;;;;;14.00;94.10;;;;;;5035034;28;19964;-80
2022/05/29 12:03:29;;;;;;;;;;;14.10;94.30;;;;;;5019265;28;20341;-72
2022/05/29 12:05:56;;;;;;;;;;;14.10;94.00;;;;;;5034342;28;19917;-81
2022/05/29 12:08:28;;;;;;;;;;;14.10;93.00;;;;;;5026902;28;19922;-77
2022/05/29 12:10:53;;;;;;;;;;;14.00;93.20;;;;;;5015888;28;19928;-76
2022/05/29 12:13:19;;;;;;;;;;;13.90;93.70;;;;;;5016749;28;20012;-76
2022/05/29 12:15:46;;;;;;;;;;;13.80;93.40;;;;;;5015828;28;20395;-87
2022/05/29 12:18:15;;;;;;;;;;;13.80;93.50;;;;;;5020126;28;19922;-77
2022/05/29 12:20:42;;;;;;;;;;;13.60;93.30;;;;;;5016611;28;20011;-77
2022/05/29 12:23:11;;;;;;;;;;;13.50;93.70;;;;;;4997691;28;19933;-78
2022/05/29 12:25:39;;;;;;;;;;;13.30;95.00;;;;;;5017110;28;19963;-79
2022/05/29 12:28:06;;;;;;;;;;;13.20;94.80;;;;;;5029756;28;19972;-79
2022/05/29 12:30:43;;;;;;;;;;;13.10;95.10;;;;;;5022365;28;19921;-78
2022/05/29 12:33:10;;;;;;;;;;;13.10;95.20;;;;;;5011053;28;19921;-78
2022/05/29 12:35:36;;;;;;;;;;;13.10;94.30;;;;;;5013466;28;19968;-80
2022/05/29 12:38:11;;;;;;;;;;;13.20;94.60;;;;;;5001432;28;19928;-82
2022/05/29 12:40:55;;;;;;;;;;;13.20;94.90;;;;;;5020990;28;19967;-82
2022/05/29 12:43:24;;;;;;;;;;;13.30;94.90;;;;;;5009449;28;20511;-78
2022/05/29 12:45:53;;;;;;;;;;;13.50;94.30;;;;;;5000230;28;19953;-82
2022/05/29 12:48:37;;;;;;;;;;;13.60;93.50;;;;;;5015014;28;19926;-77
2022/05/29 12:51:20;;;;;;;;;;;13.70;92.90;;;;;;5000193;28;20347;-84
2022/05/29 12:54:00;;;;;;;;;;;13.80;92.80;;;;;;5014802;28;19984;-80
2022/05/29 12:56:55;;;;;;;;;;;13.80;93.40;;;;;;4999461;28;19921;-79
2022/05/29 12:59:37;;;;;;;;;;;13.90;93.20;;;;;;4997711;28;19921;-80
2022/05/29 13:02:21;;;;;;;;;;;13.90;91.80;;;;;;5013679;28;19926;-81
2022/05/29 13:04:49;;;;;;;;;;;13.80;92.60;;;;;;4999115;28;19921;-75
2022/05/29 13:07:15;;;;;;;;;;;13.70;92.40;;;;;;4999191;28;19929;-77
2022/05/29 13:10:04;;;;;;;;;;;13.60;92.70;;;;;;5010444;28;20378;-81
2022/05/29 13:12:31;;;;;;;;;;;13.50;92.10;;;;;;5013630;28;19926;-82
2022/05/29 13:14:58;;;;;;;;;;;13.40;90.90;;;;;;5014350;28;19922;-78
2022/05/29 13:17:25;;;;;;;;;;;13.50;92.40;;;;;;5015653;28;19965;-77
2022/05/29 13:19:56;;;;;;;;;;;13.50;92.20;;;;;;5032100;28;19951;-81
2022/05/29 13:22:22;;;;;;;;;;;13.60;92.20;;;;;;5010535;28;19922;-77
2022/05/29 13:24:48;;;;;;;;;;;13.60;92.70;;;;;;5000867;28;19972;-76
2022/05/29 13:27:14;;;;;;;;;;;13.70;91.60;;;;;;5013450;28;19960;-76
2022/05/29 13:29:46;;;;;;;;;;;13.80;92.70;;;;;;5016101;28;20012;-78
2022/05/29 13:32:14;;;;;;;;;;;13.90;92.60;;;;;;5030420;28;19921;-78
2022/05/29 13:34:40;;;;;;;;;;;14.00;93.10;;;;;;5015247;28;20420;-80
2022/05/29 13:37:06;;;;;;;;;;;14.10;92.80;;;;;;5012228;28;19921;-79
2022/05/29 13:39:33;;;;;;;;;;;14.10;91.90;;;;;;5029879;28;19921;-83
2022/05/29 13:41:59;;;;;;;;;;;14.10;91.10;;;;;;5015450;28;20360;-83
2022/05/29 13:44:38;;;;;;;;;;;14.10;92.30;;;;;;5015458;28;19991;-79
2022/05/29 13:47:22;;;;;;;;;;;14.00;91.60;;;;;;5030625;28;19921;-80
2022/05/29 13:50:06;;;;;;;;;;;13.90;90.50;;;;;;5014938;28;20321;-77
2022/05/29 13:52:47;;;;;;;;;;;13.70;91.70;;;;;;5017500;28;19940;-83
2022/05/29 13:55:17;;;;;;;;;;;13.40;93.10;;;;;;5019885;28;19975;-81
2022/05/29 14:06:19;;;;;;;;;;;12.70;93.90;;;;;;5037835;28;19927;-80
2022/05/29 14:09:11;;;;;;;;;;;12.60;94.80;;;;;;5038820;28;19936;-79
2022/05/29 14:11:42;;;;;;;;;;;12.50;94.60;;;;;;5023291;28;20011;-80
2022/05/29 14:14:26;;;;;;;;;;;12.50;94.00;;;;;;5015449;28;19922;-80
2022/05/29 14:16:52;;;;;;;;;;;12.50;94.10;;;;;;5015408;28;19921;-79
2022/05/29 14:19:26;;;;;;;;;;;12.50;93.70;;;;;;5029841;28;19925;-79
2022/05/29 14:21:51;;;;;;;;;;;12.50;94.40;;;;;;5015479;28;19956;-79
2022/05/29 14:24:27;;;;;;;;;;;12.50;94.20;;;;;;5014694;28;19921;-83
2022/05/29 14:27:03;;;;;;;;;;;12.60;94.40;;;;;;5015397;28;19921;-79
2022/05/29 14:29:43;;;;;;;;;;;12.70;94.80;;;;;;5014843;28;19974;-78
2022/05/29 14:32:35;;;;;;;;;;;12.70;94.30;;;;;;5030344;28;19921;-78
2022/05/29 14:35:11;;;;;;;;;;;12.90;94.60;;;;;;5005581;28;19922;-78
2022/05/29 14:37:40;;;;;;;;;;;12.90;93.90;;;;;;5013464;28;19921;-79
2022/05/29 14:40:06;;;;;;;;;;;13.10;93.40;;;;;;5014580;28;20008;-80
2022/05/29 14:42:34;;;;;;;;;;;13.10;92.80;;;;;;5014212;28;19979;-79
2022/05/29 14:45:09;;;;;;;;;;;13.30;93.10;;;;;;5014451;28;19925;-78
2022/05/29 14:47:37;;;;;;;;;;;13.30;92.30;;;;;;5014401;28;19979;-78
2022/05/29 14:50:10;;;;;;;;;;;13.50;92.70;;;;;;5014521;28;20048;-78
2022/05/29 14:52:42;;;;;;;;;;;13.50;91.60;;;;;;5029363;28;20019;-81
2022/05/29 14:55:13;;;;;;;;;;;13.50;92.40;;;;;;5014374;28;19921;-78
2022/05/29 14:57:52;;;;;;;;;;;13.60;92.40;;;;;;5016994;28;20055;-77
2022/05/29 15:00:24;;;;;;;;;;;13.60;92.40;;;;;;5017309;28;19932;-77
2022/05/29 15:02:50;;;;;;;;;;;13.60;91.40;;;;;;5015400;28;19925;-76
2022/05/29 15:05:17;;;;;;;;;;;13.50;91.80;;;;;;5029474;28;20384;-78
2022/05/29 15:10:36;;;;;;;;;;;13.40;91.70;;;;;;5013701;28;19921;-77
2022/05/29 15:13:05;;;;;;;;;;;13.40;92.50;;;;;;5014221;28;19929;-76